createdAt,value
2019-02-02T00:00:58.639Z,72.57
2019-02-02T00:03:08.554Z,72.73
2019-02-02T00:05:17.893Z,72.07
2019-02-02T00:07:28.078Z,72.40
2019-02-02T00:09:37.127Z,69.80
2019-02-02T00:11:50.352Z,69.07
2019-02-02T00:14:02.150Z,74.77
2019-02-02T00:16:10.140Z,75.77
2019-02-02T00:18:18.322Z,77.80
2019-02-02T00:20:27.256Z,76.00
2019-02-02T00:22:40.698Z,72.20
2019-02-02T00:24:51.034Z,77.03
2019-02-02T00:27:00.806Z,79.43
2019-02-02T00:29:10.886Z,73.67
2019-02-02T00:31:21.224Z,79.90
2019-02-02T00:33:32.070Z,73.47
2019-02-02T00:35:41.930Z,79.00
2019-02-02T00:37:49.090Z,80.63
2019-02-02T00:40:00.372Z,73.07
2019-02-02T00:42:08.119Z,79.63
2019-02-02T00:44:16.313Z,76.37
2019-02-02T00:46:28.328Z,79.40
2019-02-02T00:48:36.114Z,80.67
2019-02-02T00:50:45.192Z,78.03
2019-02-02T00:52:53.199Z,80.20
2019-02-02T00:55:00.774Z,78.77
2019-02-02T00:57:07.814Z,84.97
2019-02-02T00:59:16.039Z,76.43
2019-02-02T01:01:23.943Z,82.30
2019-02-02T01:03:31.578Z,85.60
2019-02-02T01:05:37.907Z,80.87
2019-02-02T01:07:44.014Z,81.83
2019-02-02T01:09:48.762Z,80.17
2019-02-02T01:11:55.974Z,79.13
2019-02-02T01:14:04.172Z,75.20
2019-02-02T01:16:13.463Z,75.43
2019-02-02T01:18:21.138Z,84.57
2019-02-02T01:20:30.754Z,84.50
2019-02-02T01:22:36.067Z,76.70
2019-02-02T01:24:42.622Z,84.63
2019-02-02T01:26:51.532Z,85.13
2019-02-02T01:29:01.641Z,80.33
2019-02-02T01:31:11.560Z,79.07
2019-02-02T01:33:19.391Z,84.17
2019-02-02T01:35:28.233Z,76.40
2019-02-02T01:37:37.608Z,80.70
2019-02-02T01:39:46.795Z,82.70
2019-02-02T01:41:57.015Z,84.73
2019-02-02T01:44:03.579Z,83.73
2019-02-02T01:46:09.648Z,79.33
2019-02-02T01:48:16.587Z,82.30
2019-02-02T01:50:25.470Z,73.40
2019-02-02T01:52:33.352Z,87.60
2019-02-02T01:54:42.054Z,78.83
2019-02-02T01:56:48.375Z,81.27
2019-02-02T01:58:59.047Z,77.47
2019-02-02T02:01:06.341Z,77.77
2019-02-02T02:03:16.587Z,82.00
2019-02-02T02:05:26.870Z,82.07
2019-02-02T02:07:39.053Z,81.77
2019-02-02T02:09:47.399Z,90.30
2019-02-02T02:11:55.158Z,90.23
2019-02-02T02:14:02.406Z,76.37
2019-02-02T02:16:09.659Z,86.07
2019-02-02T02:18:17.837Z,90.63
2019-02-02T02:20:26.902Z,88.47
2019-02-02T02:22:41.214Z,83.53
2019-02-02T02:24:49.558Z,80.73
2019-02-02T02:26:58.138Z,79.87
2019-02-02T02:29:06.986Z,81.27
2019-02-02T02:31:16.924Z,78.53
2019-02-02T02:33:27.134Z,84.00
2019-02-02T02:35:34.232Z,88.37
2019-02-02T02:37:39.951Z,84.10
2019-02-02T02:39:46.246Z,84.63
2019-02-02T02:41:54.410Z,81.90
2019-02-02T02:44:05.491Z,80.27
2019-02-02T02:46:15.834Z,83.07
2019-02-02T02:48:24.718Z,81.43
2019-02-02T02:50:34.120Z,80.37
2019-02-02T02:52:42.724Z,89.67
2019-02-02T02:54:54.747Z,75.13
2019-02-02T02:57:02.202Z,76.00
2019-02-02T02:59:12.148Z,79.30
2019-02-02T03:01:23.463Z,75.40
2019-02-02T03:03:31.295Z,78.20
2019-02-02T03:05:40.276Z,80.40
2019-02-02T03:07:53.116Z,75.57
2019-02-02T03:10:03.847Z,77.13
2019-02-02T03:12:13.574Z,83.30
2019-02-02T03:14:25.307Z,69.13
2019-02-02T03:16:34.443Z,67.67
2019-02-02T03:18:43.344Z,73.27
2019-02-02T03:20:53.258Z,78.97
2019-02-02T03:23:01.178Z,75.37
2019-02-02T03:25:12.890Z,78.93
2019-02-02T03:27:17.647Z,73.23
2019-02-02T03:29:28.058Z,68.97
2019-02-02T03:31:36.911Z,72.47
2019-02-02T03:33:46.380Z,68.17
2019-02-02T03:35:54.322Z,77.17
2019-02-02T03:38:02.079Z,78.03
2019-02-02T03:40:13.675Z,71.47
2019-02-02T03:42:22.767Z,75.03
2019-02-02T03:44:31.676Z,73.57
2019-02-02T03:46:39.256Z,70.60
2019-02-02T03:48:47.667Z,76.13
2019-02-02T03:50:57.424Z,79.50
2019-02-02T03:53:06.516Z,70.47
2019-02-02T03:55:18.955Z,69.73
2019-02-02T03:57:33.150Z,70.03
2019-02-02T03:59:42.464Z,73.63
2019-02-02T04:01:52.360Z,72.10
2019-02-02T04:04:04.553Z,66.13
2019-02-02T04:06:14.375Z,65.63
2019-02-02T04:08:23.327Z,64.17
2019-02-02T04:10:32.006Z,72.43
2019-02-02T04:12:40.794Z,70.40
2019-02-02T04:14:48.075Z,66.97
2019-02-02T04:16:57.382Z,63.23
2019-02-02T04:19:05.707Z,65.57
2019-02-02T04:21:14.679Z,74.13
2019-02-02T04:23:23.539Z,62.80
2019-02-02T04:25:31.018Z,67.40
2019-02-02T04:27:40.779Z,62.93
2019-02-02T04:29:52.659Z,57.57
2019-02-02T04:32:00.697Z,67.10
2019-02-02T04:34:10.424Z,59.57
2019-02-02T04:36:18.217Z,65.37
2019-02-02T04:38:26.989Z,64.53
2019-02-02T04:40:35.607Z,62.37
2019-02-02T04:42:45.915Z,65.87
2019-02-02T04:44:56.648Z,65.93
2019-02-02T04:47:05.967Z,61.47
2019-02-02T04:49:17.719Z,62.07
2019-02-02T04:51:26.572Z,63.07
2019-02-02T04:53:40.243Z,68.63
2019-02-02T04:55:54.988Z,66.87
2019-02-02T04:58:03.442Z,65.13
2019-02-02T05:00:27.111Z,66.57
2019-02-02T05:02:38.039Z,65.93
2019-02-02T05:04:46.074Z,59.97
2019-02-02T05:06:51.734Z,66.77
2019-02-02T05:08:59.864Z,61.90
2019-02-02T05:11:08.082Z,60.90
2019-02-02T05:13:16.982Z,59.33
2019-02-02T05:15:25.758Z,63.40
2019-02-02T05:17:36.778Z,61.40
2019-02-02T05:19:47.550Z,59.87
2019-02-02T05:21:58.431Z,61.10
2019-02-02T05:24:03.198Z,64.23
2019-02-02T05:26:08.215Z,64.47
2019-02-02T05:28:13.402Z,65.13
2019-02-02T05:30:23.258Z,65.60
2019-02-02T05:32:32.015Z,62.77
2019-02-02T05:34:41.111Z,64.73
2019-02-02T05:36:50.983Z,60.10
2019-02-02T05:39:04.730Z,61.07
2019-02-02T05:41:11.963Z,64.23
2019-02-02T05:43:20.387Z,66.80
2019-02-02T05:45:28.978Z,65.50
2019-02-02T05:47:38.186Z,59.73
2019-02-02T05:49:45.866Z,62.93
2019-02-02T05:51:55.174Z,57.00
2019-02-02T05:54:05.894Z,68.00
2019-02-02T05:56:16.792Z,64.37
2019-02-02T05:58:26.668Z,64.90
2019-02-02T06:00:43.118Z,61.93
2019-02-02T06:02:48.453Z,60.33
2019-02-02T06:04:54.840Z,64.40
2019-02-02T06:07:03.283Z,63.50
2019-02-02T06:09:11.999Z,61.87
2019-02-02T06:11:21.799Z,63.80
2019-02-02T06:13:30.374Z,60.33
2019-02-02T06:15:41.178Z,59.07
2019-02-02T06:17:50.471Z,62.03
2019-02-02T06:19:58.982Z,60.60
2019-02-02T06:22:08.958Z,64.37
2019-02-02T06:24:17.706Z,62.17
2019-02-02T06:26:29.143Z,66.83
2019-02-02T06:28:40.326Z,59.40
2019-02-02T06:30:49.454Z,63.73
2019-02-02T06:32:57.403Z,62.43
2019-02-02T06:35:06.451Z,57.57
2019-02-02T06:37:11.751Z,64.63
2019-02-02T06:39:20.203Z,60.53
2019-02-02T06:41:31.122Z,66.43
2019-02-02T06:43:40.941Z,63.60
2019-02-02T06:45:49.482Z,62.53
2019-02-02T06:47:58.699Z,65.37
2019-02-02T06:50:10.159Z,62.20
2019-02-02T06:52:17.863Z,64.60
2019-02-02T06:54:31.681Z,66.10
2019-02-02T06:56:38.630Z,69.23
2019-02-02T06:58:49.907Z,67.70
2019-02-02T07:00:57.390Z,61.47
2019-02-02T07:03:05.862Z,66.67
2019-02-02T07:05:14.344Z,67.40
2019-02-02T07:07:28.074Z,69.77
2019-02-02T07:09:36.963Z,65.30
2019-02-02T07:11:45.191Z,64.60
2019-02-02T07:13:55.063Z,69.57
2019-02-02T07:16:05.098Z,75.90
2019-02-02T07:18:13.674Z,62.83
2019-02-02T07:20:23.114Z,70.47
2019-02-02T07:22:35.470Z,71.67
2019-02-02T07:24:44.278Z,63.97
2019-02-02T07:26:53.234Z,70.40
2019-02-02T07:29:02.096Z,67.10
2019-02-02T07:31:10.888Z,76.10
2019-02-02T07:33:39.023Z,68.67
2019-02-02T07:35:48.186Z,64.30
2019-02-02T07:37:56.008Z,62.80
2019-02-02T07:40:10.251Z,72.00
2019-02-02T07:42:22.314Z,67.97
2019-02-02T07:44:31.715Z,70.80
2019-02-02T07:46:44.822Z,66.03
2019-02-02T07:48:54.583Z,67.33
2019-02-02T07:51:04.691Z,70.27
2019-02-02T07:53:17.485Z,64.63
2019-02-02T07:55:27.790Z,74.90
2019-02-02T07:57:37.707Z,67.27
2019-02-02T07:59:50.792Z,70.77
2019-02-02T08:02:01.606Z,78.43
2019-02-02T08:04:11.719Z,76.00
2019-02-02T08:06:20.535Z,76.97
2019-02-02T08:08:28.978Z,74.73
2019-02-02T08:10:37.207Z,75.10
2019-02-02T08:12:47.637Z,70.27
2019-02-02T08:14:59.334Z,69.87
2019-02-02T08:17:09.415Z,75.13
2019-02-02T08:19:20.584Z,68.23
2019-02-02T08:21:31.366Z,71.37
2019-02-02T08:23:40.201Z,68.07
2019-02-02T08:25:50.710Z,70.87
2019-02-02T08:27:59.014Z,70.80
2019-02-02T08:30:11.591Z,73.93
2019-02-02T08:32:20.431Z,66.63
2019-02-02T08:34:29.723Z,79.40
2019-02-02T08:36:37.449Z,74.20
2019-02-02T08:38:45.449Z,70.30
2019-02-02T08:40:52.726Z,78.90
2019-02-02T08:43:03.676Z,69.23
2019-02-02T08:45:13.223Z,75.60
2019-02-02T08:47:22.952Z,68.97
2019-02-02T08:49:32.198Z,77.37
2019-02-02T08:51:43.145Z,71.13
2019-02-02T08:53:56.391Z,68.23
2019-02-02T08:56:04.231Z,65.67
2019-02-02T08:58:14.096Z,73.37
2019-02-02T09:00:23.028Z,73.23
2019-02-02T09:02:33.488Z,72.93
2019-02-02T09:04:48.141Z,76.17
2019-02-02T09:06:58.154Z,67.27
2019-02-02T09:09:10.118Z,76.50
2019-02-02T09:11:19.114Z,72.13
2019-02-02T09:13:31.126Z,62.83
2019-02-02T09:15:41.419Z,62.47
2019-02-02T09:17:52.600Z,63.67
2019-02-02T09:20:01.807Z,54.37
2019-02-02T09:22:12.937Z,57.93
2019-02-02T09:24:22.218Z,54.23
2019-02-02T09:26:30.190Z,57.80
2019-02-02T09:28:43.438Z,50.67
2019-02-02T09:30:52.619Z,53.30
2019-02-02T09:33:02.607Z,55.23
2019-02-02T09:35:10.999Z,57.33
2019-02-02T09:37:19.286Z,59.67
2019-02-02T09:39:27.114Z,47.60
2019-02-02T09:41:34.439Z,49.77
2019-02-02T09:43:45.284Z,56.57
2019-02-02T09:45:54.263Z,51.93
2019-02-02T09:48:02.583Z,51.63
2019-02-02T09:50:13.478Z,50.00
2019-02-02T09:52:22.343Z,50.40
2019-02-02T09:54:31.671Z,51.33
2019-02-02T09:56:40.624Z,44.60
2019-02-02T09:58:50.466Z,50.17
2019-02-02T10:01:00.384Z,47.97
2019-02-02T10:03:09.706Z,49.97
2019-02-02T10:05:19.590Z,40.37
2019-02-02T10:07:28.422Z,42.07
2019-02-02T10:09:37.181Z,39.13
2019-02-02T10:11:49.103Z,40.27
2019-02-02T10:13:58.951Z,37.30
2019-02-02T10:16:11.371Z,40.13
2019-02-02T10:18:21.196Z,41.70
2019-02-02T10:20:34.895Z,39.17
2019-02-02T10:22:44.647Z,38.63
2019-02-02T10:24:56.647Z,42.40
2019-02-02T10:27:06.406Z,42.37
2019-02-02T10:29:13.843Z,36.33
2019-02-02T10:31:22.644Z,36.67
2019-02-02T10:33:29.845Z,39.03
2019-02-02T10:35:38.233Z,38.07
2019-02-02T10:37:47.615Z,41.30
2019-02-02T10:39:57.351Z,38.47
2019-02-02T10:42:07.555Z,40.00
2019-02-02T10:44:19.675Z,27.90
2019-02-02T10:46:31.306Z,32.00
2019-02-02T10:48:42.026Z,33.00
2019-02-02T10:50:52.845Z,33.77
2019-02-02T10:53:01.342Z,30.67
2019-02-02T10:55:10.965Z,34.20
2019-02-02T10:57:29.514Z,30.30
2019-02-02T10:59:38.600Z,30.33
2019-02-02T11:01:51.230Z,28.50
2019-02-02T11:03:57.906Z,25.10
2019-02-02T11:06:11.495Z,28.03
2019-02-02T11:08:19.957Z,28.73
2019-02-02T11:10:30.032Z,24.53
2019-02-02T11:12:39.046Z,20.73
2019-02-02T11:14:47.349Z,26.27
2019-02-02T11:16:54.632Z,25.13
2019-02-02T11:19:03.188Z,24.00
2019-02-02T11:21:13.627Z,26.83
2019-02-02T11:23:21.322Z,27.10
2019-02-02T11:25:31.623Z,25.43
2019-02-02T11:27:40.185Z,22.80
2019-02-02T11:29:49.920Z,27.43
2019-02-02T11:32:03.094Z,26.00
2019-02-02T11:34:10.509Z,23.00
2019-02-02T11:36:19.174Z,24.50
2019-02-02T11:38:27.131Z,21.83
2019-02-02T11:40:37.199Z,21.20
2019-02-02T11:42:46.412Z,28.00
2019-02-02T11:44:55.315Z,22.93
2019-02-02T11:47:04.094Z,22.17
2019-02-02T11:49:13.034Z,22.03
2019-02-02T11:51:21.933Z,21.83
2019-02-02T11:53:31.442Z,17.13
2019-02-02T11:55:40.491Z,20.60
2019-02-02T11:57:51.443Z,20.93
2019-02-02T12:00:01.882Z,20.43
2019-02-02T12:02:14.611Z,19.30
2019-02-02T12:04:21.392Z,18.33
2019-02-02T12:06:29.377Z,19.60
2019-02-02T12:08:45.363Z,14.70
2019-02-02T12:10:55.144Z,18.40
2019-02-02T12:13:03.686Z,18.63
2019-02-02T12:15:14.348Z,22.90
2019-02-02T12:17:25.499Z,19.33
2019-02-02T12:19:39.515Z,23.27
2019-02-02T12:21:51.638Z,23.67
2019-02-02T12:24:13.329Z,23.77
2019-02-02T12:26:14.684Z,24.70
2019-02-02T12:28:23.766Z,22.07
2019-02-02T12:30:40.462Z,22.23
2019-02-02T12:32:48.371Z,28.17
2019-02-02T12:34:58.422Z,24.33
2019-02-02T12:37:06.364Z,24.60
2019-02-02T12:39:14.584Z,22.43
2019-02-02T12:41:24.395Z,24.77
2019-02-02T12:43:34.757Z,25.17
2019-02-02T12:45:46.462Z,23.63
2019-02-02T12:47:54.438Z,22.30
2019-02-02T12:50:03.308Z,22.57
2019-02-02T12:52:10.934Z,23.23
2019-02-02T12:54:17.350Z,22.00
2019-02-02T12:56:26.198Z,21.53
2019-02-02T12:58:35.463Z,22.60
2019-02-02T13:00:44.935Z,22.07
2019-02-02T13:02:53.618Z,22.73
2019-02-02T13:05:03.561Z,24.17
2019-02-02T13:07:11.543Z,23.57
2019-02-02T13:09:19.542Z,24.93
2019-02-02T13:11:29.814Z,22.60
2019-02-02T13:13:38.811Z,20.07
2019-02-02T13:15:49.990Z,19.83
2019-02-02T13:17:58.951Z,19.43
2019-02-02T13:20:06.917Z,20.83
2019-02-02T13:22:17.931Z,18.67
2019-02-02T13:24:26.878Z,19.83
2019-02-02T13:26:40.403Z,20.93
2019-02-02T13:28:49.966Z,21.57
2019-02-02T13:31:00.175Z,17.67
2019-02-02T13:33:12.286Z,19.90
2019-02-02T13:35:18.384Z,19.00
2019-02-02T13:37:29.066Z,18.23
2019-02-02T13:39:36.966Z,19.07
2019-02-02T13:41:50.098Z,16.63
2019-02-02T13:43:59.910Z,19.47
2019-02-02T13:46:07.494Z,17.93
2019-02-02T13:48:14.935Z,15.60
2019-02-02T13:50:24.045Z,17.70
2019-02-02T13:52:33.958Z,19.97
2019-02-02T13:54:41.939Z,18.70
2019-02-02T13:56:53.023Z,18.60
2019-02-02T13:59:01.083Z,17.77
2019-02-02T14:01:08.352Z,18.70
2019-02-02T14:03:17.167Z,19.73
2019-02-02T14:05:25.894Z,15.87
2019-02-02T14:07:34.955Z,15.00
2019-02-02T14:09:44.746Z,15.73
2019-02-02T14:11:54.055Z,15.60
2019-02-02T14:14:06.758Z,19.70
2019-02-02T14:16:15.694Z,15.93
2019-02-02T14:18:23.991Z,16.20
2019-02-02T14:20:33.950Z,16.87
2019-02-02T14:22:42.039Z,17.00
2019-02-02T14:24:50.955Z,16.43
2019-02-02T14:27:00.263Z,19.53
2019-02-02T14:29:10.163Z,16.47
2019-02-02T14:31:19.004Z,17.43
2019-02-02T14:33:29.162Z,16.17
2019-02-02T14:35:38.042Z,17.60
2019-02-02T14:37:49.355Z,15.70
2019-02-02T14:39:56.991Z,15.23
2019-02-02T14:42:04.874Z,13.50
2019-02-02T14:44:11.558Z,14.80
2019-02-02T14:46:17.818Z,14.53
2019-02-02T14:48:26.611Z,14.87
2019-02-02T14:50:32.603Z,16.07
2019-02-02T14:52:40.198Z,16.73
2019-02-02T14:54:50.055Z,15.93
2019-02-02T14:56:58.666Z,16.40
2019-02-02T14:59:05.995Z,14.17
2019-02-02T15:01:14.640Z,13.80
2019-02-02T15:03:25.873Z,15.40
2019-02-02T15:05:42.598Z,14.20
2019-02-02T15:07:42.819Z,14.73
2019-02-02T15:09:50.336Z,12.43
2019-02-02T15:12:02.261Z,13.60
2019-02-02T15:14:13.291Z,14.40
2019-02-02T15:16:25.394Z,14.77
2019-02-02T15:18:34.650Z,14.93
2019-02-02T15:20:45.694Z,13.03
2019-02-02T15:22:54.747Z,15.60
2019-02-02T15:25:03.615Z,13.10
2019-02-02T15:27:14.871Z,14.97
2019-02-02T15:29:25.268Z,13.23
2019-02-02T15:31:36.199Z,14.53
2019-02-02T15:33:45.974Z,15.47
2019-02-02T15:35:57.675Z,15.70
2019-02-02T15:38:18.959Z,14.57
2019-02-02T15:40:31.642Z,15.53
2019-02-02T15:42:40.675Z,15.67
2019-02-02T15:44:49.567Z,15.17
2019-02-02T15:47:05.519Z,14.70
2019-02-02T15:49:13.453Z,17.03
2019-02-02T15:51:21.351Z,14.17
2019-02-02T15:53:31.589Z,15.07
2019-02-02T15:55:43.381Z,15.57
2019-02-02T15:57:54.251Z,13.87
2019-02-02T16:00:04.663Z,16.33
2019-02-02T16:02:12.595Z,13.83
2019-02-02T16:04:21.344Z,12.67
2019-02-02T16:06:29.702Z,13.50
2019-02-02T16:08:40.084Z,13.20
2019-02-02T16:10:48.390Z,15.30
2019-02-02T16:12:56.522Z,13.73
2019-02-02T16:15:04.879Z,13.77
2019-02-02T16:17:17.819Z,14.00
2019-02-02T16:19:26.695Z,12.60
2019-02-02T16:21:37.415Z,14.80
2019-02-02T16:23:45.606Z,14.17
2019-02-02T16:25:56.715Z,14.60
2019-02-02T16:28:07.577Z,16.00
2019-02-02T16:30:18.813Z,14.97
2019-02-02T16:32:27.238Z,15.97
2019-02-02T16:34:35.059Z,14.53
2019-02-02T16:36:46.766Z,14.90
2019-02-02T16:39:06.585Z,14.70
2019-02-02T16:41:16.669Z,14.23
2019-02-02T16:43:25.940Z,11.73
2019-02-02T16:45:34.861Z,14.07
2019-02-02T16:47:43.222Z,15.57
2019-02-02T16:49:53.132Z,13.43
2019-02-02T16:52:12.223Z,14.07
2019-02-02T16:54:31.291Z,11.97
2019-02-02T16:56:44.285Z,12.37
2019-02-02T16:58:53.398Z,10.53
2019-02-02T17:01:05.319Z,10.63
2019-02-02T17:03:14.310Z,13.43
2019-02-02T17:05:26.314Z,12.17
2019-02-02T17:07:35.206Z,12.60
2019-02-02T17:09:43.123Z,11.60
2019-02-02T17:11:50.483Z,12.47
2019-02-02T17:14:00.466Z,12.03
2019-02-02T17:16:10.348Z,14.23
2019-02-02T17:18:19.617Z,12.77
2019-02-02T17:20:34.836Z,14.63
2019-02-02T17:22:40.911Z,15.23
2019-02-02T17:24:51.871Z,13.27
2019-02-02T17:26:57.777Z,11.57
2019-02-02T17:29:03.058Z,11.13
2019-02-02T17:31:11.443Z,12.93
2019-02-02T17:33:17.462Z,10.57
2019-02-02T17:35:25.543Z,12.73
2019-02-02T17:37:33.811Z,11.40
2019-02-02T17:39:44.743Z,14.87
2019-02-02T17:41:51.016Z,11.97
2019-02-02T17:43:58.515Z,11.37
2019-02-02T17:46:06.762Z,8.87
2019-02-02T17:48:15.746Z,10.27
2019-02-02T17:50:27.370Z,9.50
2019-02-02T17:52:37.194Z,11.63
2019-02-02T17:54:46.146Z,10.80
2019-02-02T17:56:54.937Z,11.70
2019-02-02T17:59:00.875Z,11.13
2019-02-02T18:01:06.228Z,11.17
2019-02-02T18:03:16.266Z,9.30
2019-02-02T18:05:23.571Z,9.30
2019-02-02T18:07:31.431Z,11.10
2019-02-02T18:09:46.670Z,10.00
2019-02-02T18:11:55.241Z,10.30
2019-02-02T18:14:05.207Z,10.47
2019-02-02T18:16:13.574Z,10.00
2019-02-02T18:18:22.006Z,9.07
2019-02-02T18:20:30.837Z,9.37
2019-02-02T18:22:42.003Z,8.67
2019-02-02T18:24:49.779Z,9.43
2019-02-02T18:26:58.772Z,10.23
2019-02-02T18:29:07.299Z,8.33
2019-02-02T18:31:21.875Z,10.40
2019-02-02T18:33:32.599Z,10.07
2019-02-02T18:35:41.178Z,9.10
2019-02-02T18:37:50.025Z,9.80
2019-02-02T18:40:01.478Z,10.23
2019-02-02T18:42:11.444Z,10.43
2019-02-02T18:44:19.299Z,9.40
2019-02-02T18:46:28.114Z,11.40
2019-02-02T18:48:35.378Z,9.00
2019-02-02T18:50:44.347Z,9.97
2019-02-02T18:52:52.399Z,12.23
2019-02-02T18:55:02.278Z,10.87
2019-02-02T18:57:11.122Z,11.90
2019-02-02T18:59:22.830Z,9.70
2019-02-02T19:01:31.753Z,11.47
2019-02-02T19:03:39.158Z,9.87
2019-02-02T19:05:48.983Z,11.53
2019-02-02T19:07:56.430Z,10.57
2019-02-02T19:10:05.066Z,8.90
2019-02-02T19:12:13.351Z,9.37
2019-02-02T19:14:24.124Z,8.73
2019-02-02T19:16:37.743Z,9.87
2019-02-02T19:18:50.506Z,10.53
2019-02-02T19:20:58.854Z,11.23
2019-02-02T19:23:08.348Z,15.27
2019-02-02T19:25:16.409Z,11.63
2019-02-02T19:27:23.442Z,13.63
2019-02-02T19:29:35.732Z,12.67
2019-02-02T19:31:43.460Z,13.67
2019-02-02T19:33:53.638Z,12.27
2019-02-02T19:36:01.905Z,13.63
2019-02-02T19:38:12.147Z,13.27
2019-02-02T19:40:20.542Z,12.97
2019-02-02T19:42:27.449Z,13.57
2019-02-02T19:44:35.574Z,15.37
2019-02-02T19:46:44.562Z,15.17
2019-02-02T19:48:53.385Z,15.70
2019-02-02T19:51:00.694Z,15.07
2019-02-02T19:53:09.998Z,14.93
2019-02-02T19:55:17.854Z,15.00
2019-02-02T19:57:25.896Z,14.47
2019-02-02T19:59:35.623Z,17.50
2019-02-02T20:01:45.547Z,17.60
2019-02-02T20:03:53.879Z,15.70
2019-02-02T20:06:04.246Z,18.57
2019-02-02T20:08:12.681Z,16.77
2019-02-02T20:10:20.774Z,18.23
2019-02-02T20:12:31.565Z,18.73
2019-02-02T20:14:38.807Z,18.00
2019-02-02T20:16:48.334Z,17.60
2019-02-02T20:18:56.808Z,18.47
2019-02-02T20:21:04.838Z,16.37
2019-02-02T20:23:10.645Z,17.80
2019-02-02T20:25:19.113Z,18.27
2019-02-02T20:27:27.134Z,19.13
2019-02-02T20:29:35.735Z,18.77
2019-02-02T20:31:44.646Z,20.43
2019-02-02T20:33:53.500Z,19.97
2019-02-02T20:36:05.170Z,17.47
2019-02-02T20:38:14.690Z,17.87
2019-02-02T20:40:30.262Z,19.93
2019-02-02T20:42:39.176Z,20.30
2019-02-02T20:44:49.606Z,21.10
2019-02-02T20:46:57.879Z,22.10
2019-02-02T20:49:07.889Z,21.07
2019-02-02T20:51:17.626Z,22.20
2019-02-02T20:53:25.627Z,20.33
2019-02-02T20:55:40.742Z,22.87
2019-02-02T20:57:51.754Z,22.87
2019-02-02T21:00:01.751Z,21.87
2019-02-02T21:02:11.750Z,21.43
2019-02-02T21:04:20.861Z,23.47
2019-02-02T21:06:29.270Z,24.73
2019-02-02T21:08:36.794Z,20.00
2019-02-02T21:10:47.592Z,27.40
2019-02-02T21:12:55.430Z,21.80
2019-02-02T21:15:03.311Z,26.60
2019-02-02T21:17:10.791Z,24.77
2019-02-02T21:19:19.110Z,23.67
2019-02-02T21:21:30.344Z,23.40
2019-02-02T21:23:37.206Z,27.67
2019-02-02T21:25:47.707Z,26.20
2019-02-02T21:27:55.427Z,26.27
2019-02-02T21:30:02.477Z,26.30
2019-02-02T21:32:11.123Z,25.47
2019-02-02T21:34:20.778Z,27.93
2019-02-02T21:36:30.598Z,24.70
2019-02-02T21:38:39.846Z,32.13
2019-02-02T21:40:47.531Z,25.37
2019-02-02T21:42:58.231Z,24.13
2019-02-02T21:45:07.497Z,24.60
2019-02-02T21:47:15.819Z,29.33
2019-02-02T21:49:22.392Z,27.37
2019-02-02T21:51:29.671Z,25.93
2019-02-02T21:53:39.850Z,26.53
2019-02-02T21:55:49.658Z,31.30
2019-02-02T21:58:00.955Z,24.83
2019-02-02T22:00:11.959Z,27.20
2019-02-02T22:02:22.662Z,25.70
2019-02-02T22:04:30.488Z,29.13
2019-02-02T22:06:38.282Z,32.13
2019-02-02T22:08:53.154Z,24.07
2019-02-02T22:11:01.142Z,33.43
2019-02-02T22:13:09.480Z,26.83
2019-02-02T22:15:28.599Z,27.17
2019-02-02T22:17:37.610Z,31.40
2019-02-02T22:19:45.562Z,27.93
2019-02-02T22:21:52.374Z,26.70
2019-02-02T22:24:01.659Z,26.93
2019-02-02T22:26:09.278Z,31.90
2019-02-02T22:28:18.567Z,32.30
2019-02-02T22:30:32.542Z,30.57
2019-02-02T22:32:40.231Z,31.50
2019-02-02T22:34:49.173Z,26.33
2019-02-02T22:36:55.443Z,33.63
2019-02-02T22:39:01.434Z,35.10
2019-02-02T22:41:10.459Z,33.97
2019-02-02T22:43:19.726Z,31.10
2019-02-02T22:45:25.434Z,27.50
2019-02-02T22:47:35.765Z,24.93
2019-02-02T22:49:47.381Z,30.83
2019-02-02T22:51:54.742Z,27.50
2019-02-02T22:54:02.967Z,28.67
2019-02-02T22:56:10.608Z,27.83
2019-02-02T22:58:23.234Z,29.87
2019-02-02T23:01:07.350Z,27.73
2019-02-02T23:03:18.679Z,27.10
2019-02-02T23:05:52.431Z,32.37
2019-02-02T23:08:21.098Z,31.50
2019-02-02T23:11:04.998Z,32.13
2019-02-02T23:14:00.458Z,26.40
2019-02-02T23:16:26.954Z,28.87
2019-02-02T23:18:35.014Z,28.90
2019-02-02T23:20:49.981Z,31.57
2019-02-02T23:22:59.271Z,25.60
2019-02-02T23:25:09.646Z,32.13
2019-02-02T23:27:18.808Z,29.03
2019-02-02T23:29:26.495Z,25.93
2019-02-02T23:31:32.880Z,28.43
2019-02-02T23:33:41.874Z,28.20
2019-02-02T23:35:52.018Z,30.43
2019-02-02T23:38:01.595Z,29.00
2019-02-02T23:40:12.137Z,27.03
2019-02-02T23:42:18.084Z,29.87
2019-02-02T23:44:25.333Z,31.33
2019-02-02T23:46:34.762Z,26.63
2019-02-02T23:48:48.038Z,25.13
2019-02-02T23:50:58.714Z,26.60
2019-02-02T23:53:08.012Z,26.73
2019-02-02T23:55:16.839Z,28.20
2019-02-02T23:57:25.794Z,28.73
2019-02-02T23:59:35.895Z,28.17
